Terminal Aerodrome Forecast
Issued by NWS Miami, FL

Home | Current Version | Previous Version | Text Only | Print | Product List | Glossary On
Versions: 1 2 3 4 5 6 7 8 9 10 11 12 13 14 15 16 17 18 19 20 21 22 23 24 25 26 27 28 29
000
FTUS42 KMFL 260300 AAA
TAFPBI
TAF AMD
KPBI 260300Z 2603/2624 14004KT P6SM SCT020 BKN150
     FM261000 00000KT P6SM VCSH FEW020 SCT250
     FM261500 10008KT P6SM VCTS SCT020CB BKN040 BKN250=

USA.gov is the U.S. government's official web portal to all federal, state and local government web resources and services.